sensor_id;sensor_type;location;lat;lon;timestamp;P1;durP1;ratioP1;P2;durP2;ratioP2
35518;SDS011;21627;48.216;16.482;2023-05-10T00:01:02;3.20;;;2.33;;
35518;SDS011;21627;48.216;16.482;2023-05-10T00:03:30;4.07;;;2.70;;
35518;SDS011;21627;48.216;16.482;2023-05-10T00:05:57;7.15;;;1.73;;
35518;SDS011;21627;48.216;16.482;2023-05-10T00:08:25;10.70;;;1.95;;
35518;SDS011;21627;48.216;16.482;2023-05-10T00:10:52;3.35;;;2.33;;
35518;SDS011;21627;48.216;16.482;2023-05-10T00:13:20;4.38;;;2.25;;
35518;SDS011;21627;48.216;16.482;2023-05-10T00:15:48;3.40;;;2.03;;
35518;SDS011;21627;48.216;16.482;2023-05-10T00:18:15;3.78;;;2.00;;
35518;SDS011;21627;48.216;16.482;2023-05-10T00:20:42;2.42;;;1.77;;
35518;SDS011;21627;48.216;16.482;2023-05-10T00:23:11;8.13;;;2.60;;
35518;SDS011;21627;48.216;16.482;2023-05-10T00:25:39;3.03;;;1.92;;
35518;SDS011;21627;48.216;16.482;2023-05-10T00:28:06;5.50;;;2.50;;
35518;SDS011;21627;48.216;16.482;2023-05-10T00:30:33;7.18;;;2.25;;
35518;SDS011;21627;48.216;16.482;2023-05-10T00:33:00;4.97;;;2.22;;
35518;SDS011;21627;48.216;16.482;2023-05-10T00:35:27;6.28;;;2.22;;
35518;SDS011;21627;48.216;16.482;2023-05-10T00:37:54;2.88;;;2.15;;
35518;SDS011;21627;48.216;16.482;2023-05-10T00:40:21;6.07;;;2.10;;
35518;SDS011;21627;48.216;16.482;2023-05-10T00:42:49;8.85;;;1.85;;
35518;SDS011;21627;48.216;16.482;2023-05-10T00:45:16;3.67;;;2.30;;
35518;SDS011;21627;48.216;16.482;2023-05-10T00:47:43;8.25;;;2.40;;
35518;SDS011;21627;48.216;16.482;2023-05-10T00:50:10;4.57;;;2.28;;
35518;SDS011;21627;48.216;16.482;2023-05-10T00:52:37;4.50;;;2.13;;
35518;SDS011;21627;48.216;16.482;2023-05-10T00:55:04;3.78;;;2.30;;
35518;SDS011;21627;48.216;16.482;2023-05-10T00:57:33;4.35;;;2.50;;
35518;SDS011;21627;48.216;16.482;2023-05-10T01:00:01;2.95;;;2.17;;
35518;SDS011;21627;48.216;16.482;2023-05-10T01:02:29;2.67;;;1.98;;
35518;SDS011;21627;48.216;16.482;2023-05-10T01:04:56;6.57;;;2.35;;
35518;SDS011;21627;48.216;16.482;2023-05-10T01:07:23;3.53;;;2.28;;
35518;SDS011;21627;48.216;16.482;2023-05-10T01:09:50;3.53;;;2.20;;
35518;SDS011;21627;48.216;16.482;2023-05-10T01:12:18;4.25;;;2.67;;
35518;SDS011;21627;48.216;16.482;2023-05-10T01:14:45;7.35;;;2.97;;
35518;SDS011;21627;48.216;16.482;2023-05-10T01:17:12;8.45;;;2.40;;
35518;SDS011;21627;48.216;16.482;2023-05-10T01:19:40;7.45;;;2.78;;
35518;SDS011;21627;48.216;16.482;2023-05-10T01:28:47;2.85;;;2.22;;
35518;SDS011;21627;48.216;16.482;2023-05-10T01:34:54;10.35;;;2.80;;
35518;SDS011;21627;48.216;16.482;2023-05-10T01:38:22;4.05;;;2.70;;
35518;SDS011;21627;48.216;16.482;2023-05-10T01:43:30;5.43;;;2.97;;
35518;SDS011;21627;48.216;16.482;2023-05-10T01:46:08;5.93;;;3.03;;
35518;SDS011;21627;48.216;16.482;2023-05-10T01:48:49;5.15;;;2.72;;
35518;SDS011;21627;48.216;16.482;2023-05-10T01:51:21;3.22;;;2.60;;
35518;SDS011;21627;48.216;16.482;2023-05-10T01:53:54;6.00;;;3.95;;
35518;SDS011;21627;48.216;16.482;2023-05-10T01:56:28;6.93;;;3.42;;
35518;SDS011;21627;48.216;16.482;2023-05-10T01:58:59;7.18;;;3.55;;
35518;SDS011;21627;48.216;16.482;2023-05-10T02:01:28;9.73;;;3.35;;
35518;SDS011;21627;48.216;16.482;2023-05-10T02:03:56;4.43;;;3.00;;
35518;SDS011;21627;48.216;16.482;2023-05-10T02:06:25;4.75;;;3.00;;
35518;SDS011;21627;48.216;16.482;2023-05-10T02:08:53;4.85;;;3.40;;
35518;SDS011;21627;48.216;16.482;2023-05-10T02:11:21;4.10;;;3.28;;
35518;SDS011;21627;48.216;16.482;2023-05-10T02:13:49;4.60;;;3.28;;
35518;SDS011;21627;48.216;16.482;2023-05-10T02:16:18;4.82;;;3.30;;
35518;SDS011;21627;48.216;16.482;2023-05-10T02:18:48;6.93;;;3.63;;
35518;SDS011;21627;48.216;16.482;2023-05-10T02:21:18;5.05;;;3.13;;
35518;SDS011;21627;48.216;16.482;2023-05-10T02:23:48;5.82;;;3.70;;
35518;SDS011;21627;48.216;16.482;2023-05-10T02:26:18;7.28;;;3.92;;
35518;SDS011;21627;48.216;16.482;2023-05-10T02:28:48;5.75;;;3.50;;
35518;SDS011;21627;48.216;16.482;2023-05-10T02:31:16;7.97;;;3.60;;
35518;SDS011;21627;48.216;16.482;2023-05-10T02:33:46;4.47;;;3.30;;
35518;SDS011;21627;48.216;16.482;2023-05-10T02:36:15;6.15;;;3.83;;
35518;SDS011;21627;48.216;16.482;2023-05-10T02:38:44;7.00;;;3.38;;
35518;SDS011;21627;48.216;16.482;2023-05-10T02:41:12;5.88;;;3.45;;
35518;SDS011;21627;48.216;16.482;2023-05-10T02:43:40;4.95;;;3.58;;
35518;SDS011;21627;48.216;16.482;2023-05-10T02:46:08;4.90;;;3.55;;
35518;SDS011;21627;48.216;16.482;2023-05-10T02:48:35;6.65;;;3.53;;
35518;SDS011;21627;48.216;16.482;2023-05-10T02:51:04;7.18;;;3.90;;
35518;SDS011;21627;48.216;16.482;2023-05-10T02:53:34;5.93;;;3.47;;
35518;SDS011;21627;48.216;16.482;2023-05-10T02:56:05;11.50;;;4.38;;
35518;SDS011;21627;48.216;16.482;2023-05-10T02:58:41;4.45;;;3.53;;
35518;SDS011;21627;48.216;16.482;2023-05-10T03:01:08;11.23;;;4.40;;
35518;SDS011;21627;48.216;16.482;2023-05-10T03:03:36;7.53;;;4.20;;
35518;SDS011;21627;48.216;16.482;2023-05-10T03:06:03;10.95;;;4.20;;
35518;SDS011;21627;48.216;16.482;2023-05-10T03:08:30;5.70;;;3.90;;
35518;SDS011;21627;48.216;16.482;2023-05-10T03:17:31;9.60;;;4.22;;
35518;SDS011;21627;48.216;16.482;2023-05-10T03:20:22;6.32;;;4.30;;
35518;SDS011;21627;48.216;16.482;2023-05-10T03:22:58;6.73;;;4.10;;
35518;SDS011;21627;48.216;16.482;2023-05-10T03:28:10;8.30;;;4.40;;
35518;SDS011;21627;48.216;16.482;2023-05-10T03:30:41;12.85;;;4.65;;
35518;SDS011;21627;48.216;16.482;2023-05-10T03:33:09;9.20;;;4.35;;
35518;SDS011;21627;48.216;16.482;2023-05-10T03:35:37;9.90;;;6.75;;
35518;SDS011;21627;48.216;16.482;2023-05-10T03:38:04;12.13;;;7.25;;
35518;SDS011;21627;48.216;16.482;2023-05-10T03:40:31;9.48;;;5.53;;
35518;SDS011;21627;48.216;16.482;2023-05-10T03:42:58;11.65;;;4.63;;
35518;SDS011;21627;48.216;16.482;2023-05-10T03:45:25;9.20;;;4.68;;
35518;SDS011;21627;48.216;16.482;2023-05-10T03:47:53;9.30;;;4.43;;
35518;SDS011;21627;48.216;16.482;2023-05-10T03:50:20;7.20;;;4.45;;
35518;SDS011;21627;48.216;16.482;2023-05-10T03:52:47;9.25;;;4.63;;
35518;SDS011;21627;48.216;16.482;2023-05-10T03:55:15;8.88;;;4.63;;
35518;SDS011;21627;48.216;16.482;2023-05-10T03:57:42;9.18;;;4.97;;
35518;SDS011;21627;48.216;16.482;2023-05-10T04:00:10;7.30;;;4.78;;
35518;SDS011;21627;48.216;16.482;2023-05-10T04:02:38;7.40;;;4.68;;
35518;SDS011;21627;48.216;16.482;2023-05-10T04:05:06;9.18;;;4.60;;
35518;SDS011;21627;48.216;16.482;2023-05-10T04:07:34;7.53;;;4.30;;
35518;SDS011;21627;48.216;16.482;2023-05-10T04:10:01;6.85;;;4.70;;
35518;SDS011;21627;48.216;16.482;2023-05-10T04:12:29;5.53;;;4.05;;
35518;SDS011;21627;48.216;16.482;2023-05-10T04:14:56;9.98;;;5.10;;
35518;SDS011;21627;48.216;16.482;2023-05-10T04:17:23;6.70;;;4.38;;
35518;SDS011;21627;48.216;16.482;2023-05-10T04:19:50;9.18;;;4.82;;
35518;SDS011;21627;48.216;16.482;2023-05-10T04:22:20;9.63;;;4.80;;
35518;SDS011;21627;48.216;16.482;2023-05-10T04:24:47;9.98;;;4.75;;
35518;SDS011;21627;48.216;16.482;2023-05-10T04:27:14;6.72;;;4.50;;
35518;SDS011;21627;48.216;16.482;2023-05-10T04:29:41;11.98;;;5.00;;
35518;SDS011;21627;48.216;16.482;2023-05-10T04:32:09;13.68;;;4.93;;
35518;SDS011;21627;48.216;16.482;2023-05-10T04:34:36;8.32;;;4.82;;
35518;SDS011;21627;48.216;16.482;2023-05-10T04:37:04;8.73;;;4.40;;
35518;SDS011;21627;48.216;16.482;2023-05-10T04:39:31;6.22;;;4.60;;
35518;SDS011;21627;48.216;16.482;2023-05-10T04:41:58;6.78;;;4.32;;
35518;SDS011;21627;48.216;16.482;2023-05-10T04:44:25;6.38;;;4.38;;
35518;SDS011;21627;48.216;16.482;2023-05-10T04:46:52;9.30;;;4.25;;
35518;SDS011;21627;48.216;16.482;2023-05-10T04:49:19;11.57;;;4.90;;
35518;SDS011;21627;48.216;16.482;2023-05-10T04:51:46;6.28;;;4.45;;
35518;SDS011;21627;48.216;16.482;2023-05-10T04:54:13;7.30;;;4.63;;
35518;SDS011;21627;48.216;16.482;2023-05-10T04:56:41;7.18;;;4.35;;
35518;SDS011;21627;48.216;16.482;2023-05-10T04:59:08;7.85;;;4.72;;
35518;SDS011;21627;48.216;16.482;2023-05-10T05:01:35;5.75;;;4.60;;
35518;SDS011;21627;48.216;16.482;2023-05-10T05:04:02;6.18;;;4.45;;
35518;SDS011;21627;48.216;16.482;2023-05-10T05:06:30;6.82;;;5.05;;
35518;SDS011;21627;48.216;16.482;2023-05-10T05:08:57;6.75;;;4.78;;
35518;SDS011;21627;48.216;16.482;2023-05-10T05:11:24;9.43;;;4.53;;
35518;SDS011;21627;48.216;16.482;2023-05-10T05:13:52;9.55;;;4.32;;
35518;SDS011;21627;48.216;16.482;2023-05-10T05:16:19;5.70;;;4.22;;
35518;SDS011;21627;48.216;16.482;2023-05-10T05:18:46;6.63;;;4.57;;
35518;SDS011;21627;48.216;16.482;2023-05-10T05:21:16;5.95;;;4.53;;
35518;SDS011;21627;48.216;16.482;2023-05-10T05:23:44;5.85;;;4.35;;
35518;SDS011;21627;48.216;16.482;2023-05-10T05:26:12;7.55;;;4.30;;
35518;SDS011;21627;48.216;16.482;2023-05-10T05:28:39;11.95;;;4.90;;
35518;SDS011;21627;48.216;16.482;2023-05-10T05:31:06;9.20;;;5.38;;
35518;SDS011;21627;48.216;16.482;2023-05-10T05:33:34;7.25;;;4.82;;
35518;SDS011;21627;48.216;16.482;2023-05-10T05:36:02;10.00;;;4.78;;
35518;SDS011;21627;48.216;16.482;2023-05-10T05:38:32;7.55;;;4.88;;
35518;SDS011;21627;48.216;16.482;2023-05-10T05:40:59;7.05;;;4.30;;
35518;SDS011;21627;48.216;16.482;2023-05-10T05:43:26;6.68;;;3.92;;
35518;SDS011;21627;48.216;16.482;2023-05-10T05:45:54;9.55;;;5.05;;
35518;SDS011;21627;48.216;16.482;2023-05-10T05:48:24;7.18;;;4.38;;
35518;SDS011;21627;48.216;16.482;2023-05-10T05:50:54;11.77;;;4.60;;
35518;SDS011;21627;48.216;16.482;2023-05-10T05:53:22;7.93;;;5.28;;
35518;SDS011;21627;48.216;16.482;2023-05-10T05:55:54;7.90;;;4.80;;
35518;SDS011;21627;48.216;16.482;2023-05-10T05:58:22;12.90;;;4.95;;
35518;SDS011;21627;48.216;16.482;2023-05-10T06:00:50;8.77;;;5.03;;
35518;SDS011;21627;48.216;16.482;2023-05-10T06:03:18;8.02;;;5.20;;
35518;SDS011;21627;48.216;16.482;2023-05-10T06:05:46;9.00;;;5.25;;
35518;SDS011;21627;48.216;16.482;2023-05-10T06:08:13;10.68;;;4.80;;
35518;SDS011;21627;48.216;16.482;2023-05-10T06:10:40;12.13;;;5.68;;
35518;SDS011;21627;48.216;16.482;2023-05-10T06:13:07;9.38;;;4.82;;
35518;SDS011;21627;48.216;16.482;2023-05-10T06:15:35;11.63;;;5.10;;
35518;SDS011;21627;48.216;16.482;2023-05-10T06:18:02;6.25;;;4.57;;
35518;SDS011;21627;48.216;16.482;2023-05-10T06:20:29;6.80;;;4.45;;
35518;SDS011;21627;48.216;16.482;2023-05-10T06:22:57;11.98;;;5.20;;
35518;SDS011;21627;48.216;16.482;2023-05-10T06:25:25;8.93;;;4.47;;
35518;SDS011;21627;48.216;16.482;2023-05-10T06:27:52;9.80;;;5.35;;
35518;SDS011;21627;48.216;16.482;2023-05-10T06:30:24;8.32;;;4.38;;
35518;SDS011;21627;48.216;16.482;2023-05-10T06:32:55;10.18;;;4.75;;
35518;SDS011;21627;48.216;16.482;2023-05-10T06:35:23;9.50;;;4.85;;
35518;SDS011;21627;48.216;16.482;2023-05-10T06:37:50;11.43;;;5.10;;
35518;SDS011;21627;48.216;16.482;2023-05-10T06:40:18;20.35;;;5.35;;
35518;SDS011;21627;48.216;16.482;2023-05-10T06:42:46;6.90;;;4.40;;
35518;SDS011;21627;48.216;16.482;2023-05-10T06:45:14;11.10;;;5.00;;
35518;SDS011;21627;48.216;16.482;2023-05-10T06:47:42;10.20;;;4.72;;
35518;SDS011;21627;48.216;16.482;2023-05-10T06:50:09;7.55;;;4.72;;
35518;SDS011;21627;48.216;16.482;2023-05-10T06:52:40;8.68;;;4.88;;
35518;SDS011;21627;48.216;16.482;2023-05-10T06:55:09;6.60;;;4.60;;
35518;SDS011;21627;48.216;16.482;2023-05-10T06:57:36;13.82;;;5.78;;
35518;SDS011;21627;48.216;16.482;2023-05-10T07:00:04;11.00;;;5.32;;
35518;SDS011;21627;48.216;16.482;2023-05-10T07:02:32;11.68;;;4.57;;
35518;SDS011;21627;48.216;16.482;2023-05-10T07:04:59;14.02;;;5.20;;
35518;SDS011;21627;48.216;16.482;2023-05-10T07:07:29;7.78;;;5.07;;
35518;SDS011;21627;48.216;16.482;2023-05-10T07:09:57;10.27;;;5.22;;
35518;SDS011;21627;48.216;16.482;2023-05-10T07:12:24;7.82;;;5.13;;
35518;SDS011;21627;48.216;16.482;2023-05-10T07:14:51;19.75;;;5.65;;
35518;SDS011;21627;48.216;16.482;2023-05-10T07:17:18;9.93;;;4.68;;
35518;SDS011;21627;48.216;16.482;2023-05-10T07:19:46;14.98;;;5.53;;
35518;SDS011;21627;48.216;16.482;2023-05-10T07:22:13;9.07;;;5.03;;
35518;SDS011;21627;48.216;16.482;2023-05-10T07:24:41;14.77;;;4.78;;
35518;SDS011;21627;48.216;16.482;2023-05-10T07:27:09;10.30;;;5.50;;
35518;SDS011;21627;48.216;16.482;2023-05-10T07:29:36;13.45;;;5.32;;
35518;SDS011;21627;48.216;16.482;2023-05-10T07:32:03;6.60;;;5.05;;
35518;SDS011;21627;48.216;16.482;2023-05-10T07:34:32;6.82;;;5.20;;
35518;SDS011;21627;48.216;16.482;2023-05-10T07:36:59;9.50;;;4.97;;
35518;SDS011;21627;48.216;16.482;2023-05-10T07:39:27;9.25;;;4.90;;
35518;SDS011;21627;48.216;16.482;2023-05-10T07:41:54;7.70;;;5.60;;
35518;SDS011;21627;48.216;16.482;2023-05-10T07:44:22;11.07;;;5.75;;
35518;SDS011;21627;48.216;16.482;2023-05-10T07:46:49;10.60;;;5.57;;
35518;SDS011;21627;48.216;16.482;2023-05-10T07:49:17;8.55;;;5.60;;
35518;SDS011;21627;48.216;16.482;2023-05-10T07:51:44;23.00;;;5.82;;
35518;SDS011;21627;48.216;16.482;2023-05-10T07:54:11;13.07;;;5.22;;
35518;SDS011;21627;48.216;16.482;2023-05-10T07:56:38;11.80;;;5.18;;
35518;SDS011;21627;48.216;16.482;2023-05-10T07:59:14;9.65;;;5.45;;
35518;SDS011;21627;48.216;16.482;2023-05-10T08:01:43;24.75;;;5.22;;
35518;SDS011;21627;48.216;16.482;2023-05-10T08:04:11;30.52;;;6.15;;
35518;SDS011;21627;48.216;16.482;2023-05-10T08:06:38;7.22;;;4.95;;
35518;SDS011;21627;48.216;16.482;2023-05-10T08:09:06;10.40;;;5.05;;
35518;SDS011;21627;48.216;16.482;2023-05-10T08:11:34;7.65;;;4.30;;
35518;SDS011;21627;48.216;16.482;2023-05-10T08:14:01;13.98;;;4.30;;
35518;SDS011;21627;48.216;16.482;2023-05-10T08:16:28;5.95;;;3.95;;
35518;SDS011;21627;48.216;16.482;2023-05-10T08:18:56;6.95;;;4.07;;
35518;SDS011;21627;48.216;16.482;2023-05-10T08:21:23;8.73;;;3.60;;
35518;SDS011;21627;48.216;16.482;2023-05-10T08:23:50;13.15;;;4.38;;
35518;SDS011;21627;48.216;16.482;2023-05-10T08:26:17;10.52;;;4.45;;
35518;SDS011;21627;48.216;16.482;2023-05-10T08:28:44;12.10;;;4.28;;
35518;SDS011;21627;48.216;16.482;2023-05-10T08:31:11;10.40;;;3.60;;
35518;SDS011;21627;48.216;16.482;2023-05-10T08:33:38;9.05;;;3.38;;
35518;SDS011;21627;48.216;16.482;2023-05-10T08:36:08;6.18;;;3.50;;
35518;SDS011;21627;48.216;16.482;2023-05-10T08:38:36;6.88;;;3.25;;
35518;SDS011;21627;48.216;16.482;2023-05-10T08:41:04;9.65;;;4.18;;
35518;SDS011;21627;48.216;16.482;2023-05-10T08:43:32;7.72;;;3.42;;
35518;SDS011;21627;48.216;16.482;2023-05-10T08:46:02;25.13;;;3.67;;
35518;SDS011;21627;48.216;16.482;2023-05-10T08:48:31;5.90;;;2.72;;
35518;SDS011;21627;48.216;16.482;2023-05-10T08:51:00;5.47;;;2.50;;
35518;SDS011;21627;48.216;16.482;2023-05-10T08:53:30;2.72;;;2.15;;
35518;SDS011;21627;48.216;16.482;2023-05-10T08:56:01;5.53;;;2.50;;
35518;SDS011;21627;48.216;16.482;2023-05-10T08:58:28;3.13;;;2.13;;
35518;SDS011;21627;48.216;16.482;2023-05-10T09:00:55;5.18;;;2.70;;
35518;SDS011;21627;48.216;16.482;2023-05-10T09:03:24;10.85;;;2.10;;
35518;SDS011;21627;48.216;16.482;2023-05-10T09:05:51;2.47;;;2.10;;
35518;SDS011;21627;48.216;16.482;2023-05-10T09:08:18;4.65;;;2.28;;
35518;SDS011;21627;48.216;16.482;2023-05-10T09:10:47;11.05;;;2.30;;
35518;SDS011;21627;48.216;16.482;2023-05-10T09:13:15;7.93;;;2.28;;
35518;SDS011;21627;48.216;16.482;2023-05-10T09:15:44;3.38;;;1.63;;
35518;SDS011;21627;48.216;16.482;2023-05-10T09:18:12;4.80;;;1.80;;
35518;SDS011;21627;48.216;16.482;2023-05-10T09:20:39;11.02;;;2.30;;
35518;SDS011;21627;48.216;16.482;2023-05-10T09:23:07;4.43;;;1.90;;
35518;SDS011;21627;48.216;16.482;2023-05-10T09:25:34;5.63;;;1.80;;
35518;SDS011;21627;48.216;16.482;2023-05-10T09:28:02;5.00;;;1.80;;
35518;SDS011;21627;48.216;16.482;2023-05-10T09:30:32;3.25;;;1.67;;
35518;SDS011;21627;48.216;16.482;2023-05-10T09:32:59;7.03;;;1.88;;
35518;SDS011;21627;48.216;16.482;2023-05-10T09:35:28;3.45;;;1.75;;
35518;SDS011;21627;48.216;16.482;2023-05-10T09:37:59;4.35;;;1.50;;
35518;SDS011;21627;48.216;16.482;2023-05-10T09:40:30;3.78;;;1.50;;
35518;SDS011;21627;48.216;16.482;2023-05-10T09:43:06;4.93;;;1.92;;
35518;SDS011;21627;48.216;16.482;2023-05-10T09:45:34;3.13;;;1.85;;
35518;SDS011;21627;48.216;16.482;2023-05-10T09:48:04;4.57;;;1.92;;
35518;SDS011;21627;48.216;16.482;2023-05-10T09:50:33;2.47;;;1.73;;
35518;SDS011;21627;48.216;16.482;2023-05-10T09:53:01;5.28;;;1.25;;
35518;SDS011;21627;48.216;16.482;2023-05-10T09:58:11;5.97;;;1.60;;
35518;SDS011;21627;48.216;16.482;2023-05-10T10:00:41;3.63;;;2.08;;
35518;SDS011;21627;48.216;16.482;2023-05-10T10:03:17;3.63;;;1.70;;
35518;SDS011;21627;48.216;16.482;2023-05-10T10:05:47;3.15;;;1.40;;
35518;SDS011;21627;48.216;16.482;2023-05-10T10:08:15;8.25;;;1.73;;
35518;SDS011;21627;48.216;16.482;2023-05-10T10:10:43;3.58;;;1.50;;
35518;SDS011;21627;48.216;16.482;2023-05-10T10:13:13;4.32;;;1.58;;
35518;SDS011;21627;48.216;16.482;2023-05-10T10:15:41;7.10;;;1.60;;
35518;SDS011;21627;48.216;16.482;2023-05-10T10:18:13;1.58;;;1.13;;
35518;SDS011;21627;48.216;16.482;2023-05-10T10:20:43;3.75;;;1.55;;
35518;SDS011;21627;48.216;16.482;2023-05-10T10:23:11;2.63;;;1.42;;
35518;SDS011;21627;48.216;16.482;2023-05-10T10:25:42;2.28;;;1.50;;
35518;SDS011;21627;48.216;16.482;2023-05-10T10:34:21;2.92;;;1.75;;
35518;SDS011;21627;48.216;16.482;2023-05-10T10:36:55;7.45;;;1.50;;
35518;SDS011;21627;48.216;16.482;2023-05-10T10:39:23;3.42;;;1.55;;
35518;SDS011;21627;48.216;16.482;2023-05-10T10:41:54;3.95;;;1.25;;
35518;SDS011;21627;48.216;16.482;2023-05-10T10:52:20;2.60;;;1.20;;
35518;SDS011;21627;48.216;16.482;2023-05-10T11:00:35;2.65;;;1.65;;
35518;SDS011;21627;48.216;16.482;2023-05-10T11:03:08;5.38;;;1.20;;
35518;SDS011;21627;48.216;16.482;2023-05-10T11:05:47;3.35;;;1.50;;
35518;SDS011;21627;48.216;16.482;2023-05-10T11:08:29;9.40;;;1.42;;
35518;SDS011;21627;48.216;16.482;2023-05-10T11:11:04;5.18;;;1.23;;
35518;SDS011;21627;48.216;16.482;2023-05-10T11:13:40;8.65;;;1.25;;
35518;SDS011;21627;48.216;16.482;2023-05-10T11:16:23;5.85;;;1.00;;
35518;SDS011;21627;48.216;16.482;2023-05-10T11:19:05;7.45;;;1.15;;
35518;SDS011;21627;48.216;16.482;2023-05-10T11:21:44;1.55;;;0.95;;
35518;SDS011;21627;48.216;16.482;2023-05-10T11:24:19;2.30;;;1.20;;
35518;SDS011;21627;48.216;16.482;2023-05-10T11:26:49;3.03;;;1.35;;
35518;SDS011;21627;48.216;16.482;2023-05-10T11:29:20;4.40;;;1.40;;
35518;SDS011;21627;48.216;16.482;2023-05-10T11:31:47;6.25;;;1.00;;
35518;SDS011;21627;48.216;16.482;2023-05-10T11:34:29;4.35;;;1.55;;
35518;SDS011;21627;48.216;16.482;2023-05-10T11:37:01;3.92;;;1.50;;
35518;SDS011;21627;48.216;16.482;2023-05-10T11:39:29;1.85;;;1.20;;
35518;SDS011;21627;48.216;16.482;2023-05-10T11:41:58;2.35;;;1.05;;
35518;SDS011;21627;48.216;16.482;2023-05-10T11:44:29;1.65;;;1.02;;
35518;SDS011;21627;48.216;16.482;2023-05-10T11:46:58;5.80;;;1.10;;
35518;SDS011;21627;48.216;16.482;2023-05-10T11:49:27;5.60;;;1.50;;
35518;SDS011;21627;48.216;16.482;2023-05-10T11:52:03;10.23;;;1.40;;
35518;SDS011;21627;48.216;16.482;2023-05-10T11:54:34;3.65;;;1.20;;
35518;SDS011;21627;48.216;16.482;2023-05-10T11:57:01;6.50;;;1.20;;
35518;SDS011;21627;48.216;16.482;2023-05-10T11:59:29;3.20;;;1.15;;
35518;SDS011;21627;48.216;16.482;2023-05-10T12:01:56;2.95;;;0.85;;
35518;SDS011;21627;48.216;16.482;2023-05-10T12:04:23;7.75;;;1.05;;
35518;SDS011;21627;48.216;16.482;2023-05-10T12:06:52;0.98;;;0.80;;
35518;SDS011;21627;48.216;16.482;2023-05-10T12:09:19;7.05;;;1.33;;
35518;SDS011;21627;48.216;16.482;2023-05-10T12:14:34;4.20;;;1.05;;
35518;SDS011;21627;48.216;16.482;2023-05-10T12:17:02;2.35;;;1.20;;
35518;SDS011;21627;48.216;16.482;2023-05-10T12:19:36;4.57;;;1.30;;
35518;SDS011;21627;48.216;16.482;2023-05-10T12:22:05;3.58;;;1.40;;
35518;SDS011;21627;48.216;16.482;2023-05-10T12:24:35;5.47;;;1.17;;
35518;SDS011;21627;48.216;16.482;2023-05-10T12:27:04;1.75;;;0.90;;
35518;SDS011;21627;48.216;16.482;2023-05-10T12:29:34;5.85;;;1.20;;
35518;SDS011;21627;48.216;16.482;2023-05-10T12:32:02;4.00;;;1.23;;
35518;SDS011;21627;48.216;16.482;2023-05-10T12:34:33;6.13;;;1.48;;
35518;SDS011;21627;48.216;16.482;2023-05-10T12:37:03;1.95;;;1.23;;
35518;SDS011;21627;48.216;16.482;2023-05-10T12:39:43;22.13;;;2.08;;
35518;SDS011;21627;48.216;16.482;2023-05-10T12:42:12;4.95;;;1.52;;
35518;SDS011;21627;48.216;16.482;2023-05-10T12:44:39;4.10;;;1.20;;
35518;SDS011;21627;48.216;16.482;2023-05-10T12:47:06;2.55;;;1.20;;
35518;SDS011;21627;48.216;16.482;2023-05-10T12:49:34;2.95;;;1.25;;
35518;SDS011;21627;48.216;16.482;2023-05-10T12:52:01;6.15;;;1.42;;
35518;SDS011;21627;48.216;16.482;2023-05-10T12:54:28;2.60;;;1.48;;
35518;SDS011;21627;48.216;16.482;2023-05-10T12:56:56;5.50;;;1.45;;
35518;SDS011;21627;48.216;16.482;2023-05-10T12:59:23;2.30;;;1.00;;
35518;SDS011;21627;48.216;16.482;2023-05-10T13:01:50;2.65;;;1.30;;
35518;SDS011;21627;48.216;16.482;2023-05-10T13:04:17;3.42;;;1.35;;
35518;SDS011;21627;48.216;16.482;2023-05-10T13:06:44;4.68;;;1.67;;
35518;SDS011;21627;48.216;16.482;2023-05-10T13:09:11;4.25;;;1.38;;
35518;SDS011;21627;48.216;16.482;2023-05-10T13:11:38;4.28;;;1.50;;
35518;SDS011;21627;48.216;16.482;2023-05-10T13:14:05;7.38;;;1.40;;
35518;SDS011;21627;48.216;16.482;2023-05-10T13:16:33;4.13;;;1.80;;
35518;SDS011;21627;48.216;16.482;2023-05-10T13:19:00;3.50;;;1.60;;
35518;SDS011;21627;48.216;16.482;2023-05-10T13:21:27;3.45;;;1.30;;
35518;SDS011;21627;48.216;16.482;2023-05-10T13:23:55;2.42;;;1.40;;
35518;SDS011;21627;48.216;16.482;2023-05-10T13:26:22;4.60;;;1.10;;
35518;SDS011;21627;48.216;16.482;2023-05-10T13:28:49;5.65;;;1.30;;
35518;SDS011;21627;48.216;16.482;2023-05-10T13:31:18;3.63;;;1.40;;
35518;SDS011;21627;48.216;16.482;2023-05-10T13:33:45;9.20;;;1.73;;
35518;SDS011;21627;48.216;16.482;2023-05-10T13:36:12;3.00;;;1.40;;
35518;SDS011;21627;48.216;16.482;2023-05-10T13:38:39;2.15;;;1.25;;
35518;SDS011;21627;48.216;16.482;2023-05-10T13:41:06;12.43;;;1.70;;
35518;SDS011;21627;48.216;16.482;2023-05-10T13:43:33;6.60;;;1.45;;
35518;SDS011;21627;48.216;16.482;2023-05-10T13:46:01;5.20;;;1.35;;
35518;SDS011;21627;48.216;16.482;2023-05-10T13:48:29;4.30;;;1.30;;
35518;SDS011;21627;48.216;16.482;2023-05-10T13:50:58;3.83;;;1.20;;
35518;SDS011;21627;48.216;16.482;2023-05-10T13:53:25;4.50;;;1.45;;
35518;SDS011;21627;48.216;16.482;2023-05-10T13:55:53;5.60;;;1.10;;
35518;SDS011;21627;48.216;16.482;2023-05-10T13:58:23;5.35;;;1.20;;
35518;SDS011;21627;48.216;16.482;2023-05-10T14:00:50;5.05;;;1.02;;
35518;SDS011;21627;48.216;16.482;2023-05-10T14:03:17;2.53;;;1.13;;
35518;SDS011;21627;48.216;16.482;2023-05-10T14:05:45;42.80;;;3.15;;
35518;SDS011;21627;48.216;16.482;2023-05-10T14:08:12;6.38;;;1.13;;
35518;SDS011;21627;48.216;16.482;2023-05-10T14:10:39;4.22;;;1.25;;
35518;SDS011;21627;48.216;16.482;2023-05-10T14:13:06;2.08;;;1.00;;
35518;SDS011;21627;48.216;16.482;2023-05-10T14:15:34;2.85;;;1.45;;
35518;SDS011;21627;48.216;16.482;2023-05-10T14:18:01;3.72;;;1.10;;
35518;SDS011;21627;48.216;16.482;2023-05-10T14:20:28;1.50;;;1.00;;
35518;SDS011;21627;48.216;16.482;2023-05-10T14:22:56;1.13;;;1.00;;
35518;SDS011;21627;48.216;16.482;2023-05-10T14:25:23;2.25;;;1.10;;
35518;SDS011;21627;48.216;16.482;2023-05-10T14:27:50;4.07;;;1.10;;
35518;SDS011;21627;48.216;16.482;2023-05-10T14:30:20;4.50;;;1.30;;
35518;SDS011;21627;48.216;16.482;2023-05-10T14:32:47;5.00;;;1.30;;
35518;SDS011;21627;48.216;16.482;2023-05-10T14:35:14;7.82;;;1.40;;
35518;SDS011;21627;48.216;16.482;2023-05-10T14:37:45;3.42;;;1.13;;
35518;SDS011;21627;48.216;16.482;2023-05-10T14:40:12;6.75;;;1.30;;
35518;SDS011;21627;48.216;16.482;2023-05-10T14:42:41;6.82;;;1.23;;
35518;SDS011;21627;48.216;16.482;2023-05-10T14:45:09;1.55;;;1.00;;
35518;SDS011;21627;48.216;16.482;2023-05-10T14:47:37;2.10;;;0.88;;
35518;SDS011;21627;48.216;16.482;2023-05-10T14:50:04;1.50;;;0.95;;
35518;SDS011;21627;48.216;16.482;2023-05-10T14:52:32;1.50;;;1.35;;
35518;SDS011;21627;48.216;16.482;2023-05-10T14:54:59;5.07;;;1.20;;
35518;SDS011;21627;48.216;16.482;2023-05-10T14:57:27;1.60;;;1.00;;
35518;SDS011;21627;48.216;16.482;2023-05-10T14:59:58;10.68;;;1.20;;
35518;SDS011;21627;48.216;16.482;2023-05-10T15:02:26;4.05;;;1.10;;
35518;SDS011;21627;48.216;16.482;2023-05-10T15:04:53;1.95;;;0.93;;
35518;SDS011;21627;48.216;16.482;2023-05-10T15:07:21;2.03;;;0.98;;
35518;SDS011;21627;48.216;16.482;2023-05-10T15:09:48;11.30;;;1.45;;
35518;SDS011;21627;48.216;16.482;2023-05-10T15:12:20;5.57;;;1.50;;
35518;SDS011;21627;48.216;16.482;2023-05-10T15:14:47;5.60;;;1.00;;
35518;SDS011;21627;48.216;16.482;2023-05-10T15:17:14;8.27;;;1.20;;
35518;SDS011;21627;48.216;16.482;2023-05-10T15:19:42;5.53;;;1.10;;
35518;SDS011;21627;48.216;16.482;2023-05-10T15:22:09;7.35;;;1.33;;
35518;SDS011;21627;48.216;16.482;2023-05-10T15:24:36;6.25;;;1.33;;
35518;SDS011;21627;48.216;16.482;2023-05-10T15:27:03;7.30;;;1.90;;
35518;SDS011;21627;48.216;16.482;2023-05-10T15:29:30;6.45;;;1.20;;